Strona główna
METAR-TAF:

METAR-TAF

Lotnisko :

Port lotniczy Beauvais-Tillé

Beauvais, Francja

Szerokość geograficzna: 49-28N, Długość geograficzna: 002-07E, wysokość: 109 m

Aktualna obserwacja pogody

Raport powstał 22 minut temu, godzina 01:00 UTC
Wiatr 1 kt z kierunków zmiennych
Temperatura 20°C
Wilgotność 53%
Ciśnienie 1013 hPa
Widzialność 10 km lub więcej

METAR: LFOB 240100Z AUTO VRB01KT 9999 // NSC 20/10 Q1013

czas: 03:22 (01:22 UTC)

Prognoza

Raport powstał 2 godziny i 22 minut temu, godzina 23:00 UTC
Prognoza ważna od 24 godzina 00 UTC do 24 godzina 24 UTC
Wiatr 6 kt od wschodnio-południowy wschód
Widzialność 10 km lub więcej
Brak chmur poniżej 1500 m i brak chmur cumulonimbus

TAF: LFOB 232300Z 2400/2424 12006KT CAVOK

Obserwacja i prognoza pogody dla ponad 4000 lotnisk (raport METAR i TAF).

Dostępne stacje oznaczono żółtymi i czerwonymi punktami na mapie.

Najedź kursorem aby zobaczyć nazwę stacji.

Kliknij aby zobaczyć obserwacje i prognozy pogody.

Aby zmienić mapę: kliknij na zielony przycisk z czarnym krzyżykiem, aby powiększyć; na zielony przycisk z myślnikiem, aby pomniejszyć; na zielone strzałki, aby przejść do map sąsiednich.


METAR-TAF: